createdAt,value
2019-02-19T00:00:30.448Z,71.67
2019-02-19T00:02:59.906Z,84.17
2019-02-19T00:05:29.465Z,95.13
2019-02-19T00:07:58.945Z,112.13
2019-02-19T00:10:28.395Z,78.80
2019-02-19T00:12:57.861Z,76.10
2019-02-19T00:15:27.353Z,72.27
2019-02-19T00:17:56.801Z,86.03
2019-02-19T00:20:26.265Z,113.50
2019-02-19T00:22:55.755Z,106.37
2019-02-19T00:25:25.040Z,90.83
2019-02-19T00:27:54.498Z,107.00
2019-02-19T00:30:24.043Z,85.07
2019-02-19T00:32:53.514Z,78.30
2019-02-19T00:35:22.975Z,88.20
2019-02-19T00:37:52.471Z,96.93
2019-02-19T00:40:21.928Z,96.03
2019-02-19T00:42:51.499Z,75.70
2019-02-19T00:45:20.993Z,74.47
2019-02-19T00:47:50.456Z,105.47
2019-02-19T00:50:19.952Z,98.00
2019-02-19T00:52:49.398Z,101.27
2019-02-19T00:55:18.857Z,100.87
2019-02-19T00:57:48.322Z,87.40
2019-02-19T01:00:17.876Z,80.07
2019-02-19T01:02:47.344Z,94.30
2019-02-19T01:05:16.801Z,82.73
2019-02-19T01:07:46.514Z,86.67
2019-02-19T01:10:15.977Z,71.23
2019-02-19T01:12:45.436Z,106.70
2019-02-19T01:15:14.917Z,98.80
2019-02-19T01:17:44.382Z,93.00
2019-02-19T01:20:13.833Z,73.60
2019-02-19T01:22:43.323Z,71.23
2019-02-19T01:25:12.770Z,72.00
2019-02-19T01:27:42.216Z,72.33
2019-02-19T01:30:12.303Z,80.30
2019-02-19T01:32:41.769Z,70.67
2019-02-19T01:35:11.224Z,72.47
2019-02-19T01:37:40.720Z,78.30
2019-02-19T01:40:10.952Z,74.40
2019-02-19T01:42:40.438Z,75.70
2019-02-19T01:45:10.561Z,74.33
2019-02-19T01:47:40.015Z,72.20
2019-02-19T01:50:10.674Z,71.77
2019-02-19T01:52:40.156Z,77.50
2019-02-19T01:55:09.959Z,71.20
2019-02-19T01:57:39.426Z,76.57
2019-02-19T02:00:11.630Z,76.37
2019-02-19T02:02:41.090Z,97.37
2019-02-19T02:05:10.548Z,92.00
2019-02-19T02:07:40.043Z,103.10
2019-02-19T02:10:09.500Z,94.23
2019-02-19T02:12:38.948Z,73.57
2019-02-19T02:15:09.091Z,74.27
2019-02-19T02:17:38.566Z,74.13
2019-02-19T02:20:09.062Z,97.80
2019-02-19T02:22:38.566Z,74.50
2019-02-19T02:25:08.341Z,70.73
2019-02-19T02:27:37.814Z,73.40
2019-02-19T02:30:08.712Z,73.53
2019-02-19T02:32:38.160Z,74.60
2019-02-19T02:35:07.758Z,76.27
2019-02-19T02:37:37.258Z,83.63
2019-02-19T02:40:08.420Z,75.20
2019-02-19T02:42:37.886Z,76.27
2019-02-19T02:45:07.474Z,77.10
2019-02-19T02:47:37.063Z,100.57
2019-02-19T02:50:06.859Z,85.63
2019-02-19T02:52:36.345Z,76.70
2019-02-19T02:55:06.884Z,78.03
2019-02-19T02:57:36.338Z,75.90
2019-02-19T03:00:08.327Z,74.27
2019-02-19T03:02:37.777Z,73.70
2019-02-19T03:05:07.417Z,74.40
2019-02-19T03:07:44.327Z,76.27
2019-02-19T03:10:13.784Z,74.53
2019-02-19T03:12:43.247Z,75.33
2019-02-19T03:15:13.099Z,78.93
2019-02-19T03:17:42.552Z,97.30
2019-02-19T03:20:12.014Z,77.67
2019-02-19T03:22:41.491Z,76.53
2019-02-19T03:25:11.024Z,90.10
2019-02-19T03:27:40.484Z,77.77
2019-02-19T03:30:11.502Z,80.70
2019-02-19T03:32:40.962Z,79.73
2019-02-19T03:35:10.413Z,76.37
2019-02-19T03:37:39.901Z,75.27
2019-02-19T03:40:09.788Z,78.93
2019-02-19T03:42:40.175Z,82.83
2019-02-19T03:45:10.800Z,83.40
2019-02-19T03:47:40.299Z,89.70
2019-02-19T03:50:09.755Z,72.63
2019-02-19T03:52:39.234Z,76.50
2019-02-19T03:55:08.819Z,78.33
2019-02-19T03:57:38.352Z,73.23
2019-02-19T04:00:09.422Z,71.93
2019-02-19T04:02:38.886Z,72.27
2019-02-19T04:05:08.340Z,75.07
2019-02-19T04:07:37.821Z,76.97
2019-02-19T04:10:09.291Z,71.73
2019-02-19T04:12:38.757Z,69.90
2019-02-19T04:15:08.963Z,77.93
2019-02-19T04:17:38.433Z,97.10
2019-02-19T04:20:09.534Z,84.40
2019-02-19T04:22:39.015Z,76.23
2019-02-19T04:25:08.881Z,95.80
2019-02-19T04:27:38.333Z,73.07
2019-02-19T04:30:09.731Z,78.07
2019-02-19T04:32:39.184Z,96.27
2019-02-19T04:35:08.656Z,92.37
2019-02-19T04:37:38.161Z,107.33
2019-02-19T04:40:09.635Z,71.77
2019-02-19T04:42:39.158Z,92.17
2019-02-19T04:45:08.825Z,105.23
2019-02-19T04:47:38.300Z,86.13
2019-02-19T04:50:09.450Z,93.97
2019-02-19T04:52:38.921Z,98.10
2019-02-19T04:55:09.113Z,91.73
2019-02-19T04:57:38.569Z,103.10
2019-02-19T05:00:14.281Z,98.90
2019-02-19T05:02:43.738Z,93.57
2019-02-19T05:05:13.264Z,102.10
2019-02-19T05:07:42.755Z,77.67
2019-02-19T05:10:12.277Z,94.77
2019-02-19T05:12:41.723Z,103.67
2019-02-19T05:15:12.416Z,103.97
2019-02-19T05:17:41.939Z,87.07
2019-02-19T05:20:11.402Z,76.87
2019-02-19T05:22:40.904Z,72.70
2019-02-19T05:25:10.441Z,96.90
2019-02-19T05:27:39.910Z,101.63
2019-02-19T05:30:13.030Z,73.90
2019-02-19T05:32:42.497Z,85.20
2019-02-19T05:35:11.975Z,85.00
2019-02-19T05:37:41.460Z,89.13
2019-02-19T05:40:11.259Z,89.47
2019-02-19T05:42:40.717Z,85.27
2019-02-19T05:45:11.765Z,86.77
2019-02-19T05:47:41.225Z,100.60
2019-02-19T05:50:11.240Z,84.17
2019-02-19T05:52:40.822Z,91.33
2019-02-19T05:55:10.721Z,91.73
2019-02-19T05:57:40.169Z,74.40
2019-02-19T06:00:13.448Z,67.40
2019-02-19T06:02:42.902Z,82.00
2019-02-19T06:05:12.427Z,81.77
2019-02-19T06:07:41.908Z,94.53
2019-02-19T06:10:13.376Z,89.60
2019-02-19T06:12:42.825Z,97.63
2019-02-19T06:15:13.417Z,100.10
2019-02-19T06:17:42.875Z,69.13
2019-02-19T06:20:12.408Z,60.60
2019-02-19T06:22:41.897Z,64.73
2019-02-19T06:25:11.355Z,65.10
2019-02-19T06:27:40.810Z,64.50
2019-02-19T06:30:14.525Z,67.07
2019-02-19T06:32:43.976Z,65.97
2019-02-19T06:35:13.439Z,81.60
2019-02-19T06:37:42.965Z,76.03
2019-02-19T06:40:25.307Z,77.40
2019-02-19T06:42:55.029Z,85.97
2019-02-19T06:45:24.498Z,62.80
2019-02-19T06:47:53.960Z,70.13
2019-02-19T06:50:23.452Z,74.67
2019-02-19T06:52:52.963Z,68.30
2019-02-19T06:55:22.480Z,68.20
2019-02-19T06:57:52.033Z,61.60
2019-02-19T07:00:21.480Z,63.43
2019-02-19T07:02:58.912Z,61.87
2019-02-19T07:05:28.366Z,59.73
2019-02-19T07:07:57.836Z,60.30
2019-02-19T07:10:27.307Z,60.83
2019-02-19T07:12:56.772Z,63.33
2019-02-19T07:15:26.234Z,58.70
2019-02-19T07:17:55.722Z,57.40
2019-02-19T07:20:25.168Z,54.70
2019-02-19T07:22:54.630Z,76.90
2019-02-19T07:25:24.119Z,64.40
2019-02-19T07:27:53.569Z,62.30
2019-02-19T07:30:23.032Z,59.97
2019-02-19T07:32:52.522Z,69.93
2019-02-19T07:35:21.978Z,62.80
2019-02-19T07:37:51.442Z,76.30
2019-02-19T07:40:20.915Z,58.00
2019-02-19T07:42:50.381Z,72.07
2019-02-19T07:45:19.825Z,56.13
2019-02-19T07:47:49.318Z,56.37
2019-02-19T07:50:18.768Z,56.97
2019-02-19T07:52:48.220Z,57.40
2019-02-19T07:55:17.720Z,63.70
2019-02-19T07:57:47.247Z,71.97
2019-02-19T08:00:16.719Z,55.30
2019-02-19T08:02:46.189Z,65.80
2019-02-19T08:05:15.651Z,64.20
2019-02-19T08:07:45.099Z,68.00
2019-02-19T08:10:14.657Z,63.00
2019-02-19T08:12:44.118Z,66.20
2019-02-19T08:15:13.565Z,65.90
2019-02-19T08:17:43.066Z,57.17
2019-02-19T08:20:15.971Z,62.43
2019-02-19T08:22:43.700Z,60.10
2019-02-19T08:25:13.182Z,63.47
2019-02-19T08:27:42.655Z,68.20
2019-02-19T08:30:12.276Z,53.07
2019-02-19T08:32:41.777Z,71.43
2019-02-19T08:35:11.258Z,70.77
2019-02-19T08:37:40.710Z,53.00
2019-02-19T08:40:10.853Z,68.77
2019-02-19T08:42:40.318Z,65.47
2019-02-19T08:45:10.613Z,64.30
2019-02-19T08:47:42.621Z,54.30
2019-02-19T08:50:11.278Z,54.83
2019-02-19T08:52:40.730Z,58.07
2019-02-19T08:55:10.269Z,61.70
2019-02-19T08:57:39.722Z,50.27
2019-02-19T09:00:12.987Z,35.83
2019-02-19T09:02:42.500Z,31.27
2019-02-19T09:05:11.933Z,31.23
2019-02-19T09:07:41.382Z,29.27
2019-02-19T09:10:12.595Z,31.27
2019-02-19T09:12:42.075Z,29.60
2019-02-19T09:15:12.959Z,30.50
2019-02-19T09:17:51.306Z,28.00
2019-02-19T09:20:13.633Z,25.77
2019-02-19T09:22:43.084Z,24.00
2019-02-19T09:25:12.226Z,26.67
2019-02-19T09:27:43.312Z,27.87
2019-02-19T09:30:13.841Z,25.87
2019-02-19T09:32:43.327Z,27.53
2019-02-19T09:35:12.773Z,24.00
2019-02-19T09:37:42.267Z,28.80
2019-02-19T09:40:12.032Z,27.13
2019-02-19T09:42:41.492Z,26.90
2019-02-19T09:45:11.692Z,23.00
2019-02-19T09:47:41.243Z,24.90
2019-02-19T09:50:11.470Z,21.90
2019-02-19T09:52:40.960Z,22.17
2019-02-19T09:55:10.531Z,21.80
2019-02-19T09:57:40.016Z,23.17
2019-02-19T10:00:13.543Z,25.43
2019-02-19T10:02:43.937Z,23.70
2019-02-19T10:05:13.686Z,22.23
2019-02-19T10:07:43.203Z,24.83
2019-02-19T10:10:17.389Z,24.00
2019-02-19T10:12:46.874Z,23.23
2019-02-19T10:15:16.378Z,22.67
2019-02-19T10:17:45.845Z,19.90
2019-02-19T10:20:15.292Z,21.47
2019-02-19T10:22:44.782Z,21.33
2019-02-19T10:25:15.374Z,19.70
2019-02-19T10:27:44.863Z,21.57
2019-02-19T10:30:20.123Z,19.90
2019-02-19T10:32:49.618Z,21.00
2019-02-19T10:35:19.075Z,19.00
2019-02-19T10:37:48.560Z,19.27
2019-02-19T10:40:21.928Z,18.40
2019-02-19T10:42:51.387Z,17.83
2019-02-19T10:45:26.245Z,16.53
2019-02-19T10:47:55.702Z,16.37
2019-02-19T10:50:25.216Z,15.97
2019-02-19T10:52:54.698Z,17.63
2019-02-19T10:55:24.205Z,17.00
2019-02-19T10:57:53.658Z,17.93
2019-02-19T11:00:23.643Z,17.30
2019-02-19T11:02:53.075Z,19.67
2019-02-19T11:05:22.622Z,19.17
2019-02-19T11:07:52.118Z,19.90
2019-02-19T11:10:21.595Z,19.57
2019-02-19T11:12:52.600Z,19.67
2019-02-19T11:15:22.092Z,17.33
2019-02-19T11:17:51.544Z,19.00
2019-02-19T11:20:22.934Z,17.90
2019-02-19T11:22:52.423Z,17.50
2019-02-19T11:25:21.875Z,16.90
2019-02-19T11:27:51.352Z,15.80
2019-02-19T11:30:21.297Z,15.40
2019-02-19T11:32:50.764Z,14.87
2019-02-19T11:35:20.220Z,14.23
2019-02-19T11:37:49.711Z,16.47
2019-02-19T11:40:19.166Z,15.23
2019-02-19T11:42:48.626Z,15.53
2019-02-19T11:45:19.821Z,15.50
2019-02-19T11:47:49.277Z,14.70
2019-02-19T11:50:18.724Z,14.30
2019-02-19T11:52:48.289Z,15.43
2019-02-19T11:55:19.753Z,13.97
2019-02-19T11:57:49.220Z,12.57
2019-02-19T12:00:20.366Z,12.50
2019-02-19T12:02:49.811Z,11.20
2019-02-19T12:05:19.262Z,12.20
2019-02-19T12:07:48.762Z,12.40
2019-02-19T12:10:18.224Z,13.30
2019-02-19T12:12:47.686Z,11.90
2019-02-19T12:15:19.226Z,12.73
2019-02-19T12:17:48.600Z,12.70
2019-02-19T12:20:18.126Z,12.17
2019-02-19T12:22:47.623Z,13.13
2019-02-19T12:25:17.089Z,12.20
2019-02-19T12:27:46.555Z,13.07
2019-02-19T12:30:20.124Z,16.30
2019-02-19T12:32:49.576Z,18.67
2019-02-19T12:35:19.032Z,14.27
2019-02-19T12:37:48.516Z,14.40
2019-02-19T12:40:17.975Z,14.83
2019-02-19T12:42:47.541Z,13.80
2019-02-19T12:45:17.021Z,13.07
2019-02-19T12:47:46.486Z,13.83
2019-02-19T12:50:18.825Z,14.03
2019-02-19T12:52:48.309Z,14.73
2019-02-19T12:55:17.771Z,13.70
2019-02-19T12:57:47.234Z,13.07
2019-02-19T13:00:20.672Z,13.77
2019-02-19T13:02:50.143Z,13.63
2019-02-19T13:05:19.587Z,12.73
2019-02-19T13:07:49.071Z,13.87
2019-02-19T13:10:18.525Z,14.97
2019-02-19T13:12:49.139Z,14.67
2019-02-19T13:15:22.123Z,15.27
2019-02-19T13:17:51.584Z,12.23
2019-02-19T13:20:21.040Z,13.93
2019-02-19T13:22:50.535Z,14.13
2019-02-19T13:25:19.998Z,14.87
2019-02-19T13:27:49.454Z,15.13
2019-02-19T13:30:21.354Z,15.43
2019-02-19T13:32:50.821Z,16.83
2019-02-19T13:35:20.389Z,16.93
2019-02-19T13:37:49.875Z,16.57
2019-02-19T13:40:21.325Z,16.63
2019-02-19T13:42:50.794Z,16.77
2019-02-19T13:45:20.286Z,16.27
2019-02-19T13:47:49.892Z,16.60
2019-02-19T13:50:28.564Z,17.10
2019-02-19T13:52:59.665Z,17.47
2019-02-19T13:55:30.769Z,17.83
2019-02-19T13:58:00.242Z,18.47
2019-02-19T14:00:31.338Z,17.20
2019-02-19T14:03:00.791Z,18.80
2019-02-19T14:05:30.291Z,19.50
2019-02-19T14:07:59.749Z,19.70
2019-02-19T14:10:29.202Z,19.73
2019-02-19T14:12:58.690Z,17.37
2019-02-19T14:15:38.547Z,19.67
2019-02-19T14:18:09.670Z,20.10
2019-02-19T14:20:46.351Z,20.83
2019-02-19T14:23:17.487Z,19.93
2019-02-19T14:26:24.107Z,21.40
2019-02-19T14:28:58.349Z,20.83
2019-02-19T14:31:35.578Z,14.83
2019-02-19T14:34:25.109Z,21.90
2019-02-19T14:36:56.200Z,20.47
2019-02-19T14:39:45.354Z,19.47
2019-02-19T14:42:32.611Z,20.30
2019-02-19T14:45:06.586Z,20.17
2019-02-19T14:47:53.999Z,22.90
2019-02-19T14:50:31.121Z,22.70
2019-02-19T14:53:20.355Z,21.80
2019-02-19T14:56:00.062Z,21.43
2019-02-19T14:58:46.299Z,18.77
2019-02-19T15:01:17.426Z,23.67
2019-02-19T15:04:00.521Z,19.47
2019-02-19T15:06:44.307Z,17.93
2019-02-19T15:09:21.698Z,19.27
2019-02-19T15:11:58.788Z,19.33
2019-02-19T15:14:29.942Z,17.97
2019-02-19T15:17:16.442Z,18.63
2019-02-19T15:19:59.379Z,19.20
2019-02-19T15:22:35.987Z,18.03
2019-02-19T15:25:13.975Z,18.00
2019-02-19T15:27:50.703Z,15.93
2019-02-19T15:30:28.011Z,17.63
2019-02-19T15:33:02.201Z,19.00
2019-02-19T15:35:49.438Z,17.03
2019-02-19T15:38:38.603Z,14.30
2019-02-19T15:41:12.697Z,15.37
2019-02-19T15:43:55.636Z,17.30
2019-02-19T15:46:44.799Z,16.50
2019-02-19T15:49:32.021Z,14.87
2019-02-19T15:52:09.174Z,15.97
2019-02-19T15:54:56.200Z,19.33
2019-02-19T15:57:30.152Z,20.50
2019-02-19T16:00:03.790Z,17.33
2019-02-19T16:02:34.881Z,18.20
2019-02-19T16:05:15.241Z,18.40
2019-02-19T16:07:46.351Z,18.67
2019-02-19T16:10:17.455Z,16.77
2019-02-19T16:12:48.569Z,17.80
2019-02-19T16:15:37.417Z,20.23
2019-02-19T16:18:17.235Z,17.40
2019-02-19T16:20:48.342Z,20.43
2019-02-19T16:23:32.379Z,18.57
2019-02-19T16:26:09.441Z,18.47
2019-02-19T16:28:46.214Z,16.87
2019-02-19T16:31:25.758Z,18.77
2019-02-19T16:34:00.402Z,16.70
2019-02-19T16:36:31.539Z,17.13
2019-02-19T16:39:02.642Z,16.97
2019-02-19T16:41:33.791Z,15.27
2019-02-19T16:44:14.172Z,19.67
2019-02-19T16:46:45.323Z,23.40
2019-02-19T16:49:16.437Z,34.00
2019-02-19T16:51:59.315Z,27.73
2019-02-19T16:54:30.435Z,17.97
2019-02-19T16:57:01.537Z,16.50
2019-02-19T16:59:32.648Z,15.57
2019-02-19T17:02:05.444Z,14.17
2019-02-19T17:04:52.822Z,12.30
2019-02-19T17:07:26.667Z,11.97
2019-02-19T17:10:06.283Z,12.33
2019-02-19T17:12:39.877Z,12.43
2019-02-19T17:15:17.730Z,14.10
2019-02-19T17:18:03.692Z,12.27
2019-02-19T17:20:34.781Z,15.63
2019-02-19T17:23:21.304Z,15.30
2019-02-19T17:25:57.990Z,15.23
2019-02-19T17:28:34.835Z,14.03
2019-02-19T17:31:22.078Z,16.67
2019-02-19T17:34:09.417Z,16.47
2019-02-19T17:36:49.853Z,17.20
2019-02-19T17:39:39.418Z,17.87
2019-02-19T17:42:19.429Z,15.00
2019-02-19T17:44:56.102Z,18.30
2019-02-19T17:47:29.870Z,15.97
2019-02-19T17:50:00.962Z,16.90
2019-02-19T17:52:32.077Z,18.77
2019-02-19T17:55:19.633Z,17.60
2019-02-19T17:57:59.512Z,18.60
2019-02-19T18:00:30.598Z,14.87
2019-02-19T18:03:04.462Z,18.27
2019-02-19T18:05:38.563Z,12.60
2019-02-19T18:08:18.623Z,12.37
2019-02-19T18:11:01.413Z,11.53
2019-02-19T18:13:44.168Z,11.37
2019-02-19T18:16:18.430Z,12.80
2019-02-19T18:18:49.811Z,11.93
2019-02-19T18:21:19.489Z,12.90
2019-02-19T18:23:48.967Z,10.80
2019-02-19T18:26:18.425Z,10.70
2019-02-19T18:28:47.944Z,9.77
2019-02-19T18:31:17.463Z,9.37
2019-02-19T18:33:46.922Z,8.70
2019-02-19T18:36:16.366Z,8.10
2019-02-19T18:38:45.851Z,7.77
2019-02-19T18:41:15.327Z,8.10
2019-02-19T18:43:44.850Z,8.10
2019-02-19T18:46:14.323Z,7.00
2019-02-19T18:48:43.785Z,8.20
2019-02-19T18:51:13.235Z,7.00
2019-02-19T18:53:42.735Z,8.30
2019-02-19T18:56:12.169Z,7.80
2019-02-19T18:58:41.618Z,6.43
2019-02-19T19:01:11.110Z,7.43
2019-02-19T19:03:40.560Z,8.40
2019-02-19T19:06:10.002Z,8.60
2019-02-19T19:08:39.489Z,8.63
2019-02-19T19:11:08.937Z,16.00
2019-02-19T19:13:38.435Z,24.10
2019-02-19T19:16:09.526Z,9.77
2019-02-19T19:18:38.980Z,10.60
2019-02-19T19:21:08.451Z,11.67
2019-02-19T19:23:38.149Z,10.33
2019-02-19T19:26:07.589Z,10.10
2019-02-19T19:28:37.042Z,11.97
2019-02-19T19:31:06.641Z,7.80
2019-02-19T19:33:36.117Z,11.13
2019-02-19T19:36:07.163Z,10.63
2019-02-19T19:38:36.644Z,12.37
2019-02-19T19:41:06.101Z,12.43
2019-02-19T19:43:37.219Z,14.27
2019-02-19T19:46:06.903Z,12.97
2019-02-19T19:48:36.349Z,14.13
2019-02-19T19:51:05.999Z,14.77
2019-02-19T19:53:35.507Z,17.40
2019-02-19T19:56:06.195Z,13.93
2019-02-19T19:58:35.646Z,14.20
2019-02-19T20:01:05.397Z,16.53
2019-02-19T20:03:34.838Z,14.93
2019-02-19T20:06:04.309Z,17.13
2019-02-19T20:08:35.851Z,17.70
2019-02-19T20:11:05.311Z,17.83
2019-02-19T20:13:34.765Z,17.67
2019-02-19T20:16:04.337Z,18.97
2019-02-19T20:18:39.069Z,21.70
2019-02-19T20:21:05.191Z,21.87
2019-02-19T20:23:34.730Z,19.40
2019-02-19T20:26:04.203Z,18.00
2019-02-19T20:28:38.076Z,17.23
2019-02-19T20:31:06.639Z,18.07
2019-02-19T20:33:36.101Z,18.37
2019-02-19T20:36:05.552Z,18.17
2019-02-19T20:38:35.048Z,21.27
2019-02-19T20:41:04.589Z,16.30
2019-02-19T20:43:34.057Z,17.90
2019-02-19T20:46:03.551Z,23.90
2019-02-19T20:48:33.014Z,24.53
2019-02-19T20:51:02.504Z,25.10
2019-02-19T20:53:31.996Z,28.80
2019-02-19T20:56:01.455Z,26.03
2019-02-19T20:58:30.928Z,20.60
2019-02-19T21:01:00.396Z,23.00
2019-02-19T21:03:29.848Z,23.77
2019-02-19T21:05:59.357Z,22.10
2019-02-19T21:08:28.811Z,22.83
2019-02-19T21:10:58.259Z,17.27
2019-02-19T21:13:27.738Z,26.10
2019-02-19T21:15:57.205Z,25.53
2019-02-19T21:18:26.703Z,23.73
2019-02-19T21:20:56.150Z,25.80
2019-02-19T21:23:25.611Z,25.97
2019-02-19T21:25:55.115Z,25.73
2019-02-19T21:28:24.565Z,21.50
2019-02-19T21:30:54.017Z,22.57
2019-02-19T21:33:23.552Z,22.80
2019-02-19T21:35:57.630Z,19.70
2019-02-19T21:38:24.184Z,16.93
2019-02-19T21:40:53.671Z,22.03
2019-02-19T21:43:23.289Z,18.53
2019-02-19T21:45:52.788Z,20.20
2019-02-19T21:48:22.276Z,19.00
2019-02-19T21:50:51.730Z,19.80
2019-02-19T21:53:21.865Z,18.63
2019-02-19T21:55:51.350Z,18.60
2019-02-19T21:58:21.065Z,16.73
2019-02-19T22:00:50.514Z,17.77
2019-02-19T22:03:20.019Z,20.07
2019-02-19T22:05:49.461Z,18.77
2019-02-19T22:08:18.912Z,18.37
2019-02-19T22:10:48.383Z,20.30
2019-02-19T22:13:17.835Z,17.40
2019-02-19T22:15:47.281Z,20.80
2019-02-19T22:18:16.761Z,19.53
2019-02-19T22:20:53.714Z,20.33
2019-02-19T22:23:23.187Z,15.23
2019-02-19T22:25:52.633Z,19.17
2019-02-19T22:28:22.973Z,19.67
2019-02-19T22:30:52.514Z,19.90
2019-02-19T22:33:21.951Z,19.27
2019-02-19T22:35:51.398Z,18.07
2019-02-19T22:38:20.875Z,19.27
2019-02-19T22:40:55.215Z,19.43
2019-02-19T22:43:21.508Z,14.77
2019-02-19T22:45:50.991Z,18.60
2019-02-19T22:48:20.447Z,18.33
2019-02-19T22:50:49.901Z,16.80
2019-02-19T22:53:21.045Z,17.77
2019-02-19T22:55:52.133Z,16.33
2019-02-19T22:58:21.601Z,17.97
2019-02-19T23:01:11.469Z,17.00
2019-02-19T23:03:41.403Z,16.10
2019-02-19T23:06:10.854Z,19.10
2019-02-19T23:08:40.331Z,16.37
2019-02-19T23:11:09.790Z,16.27
2019-02-19T23:13:39.244Z,16.47
2019-02-19T23:16:08.717Z,17.77
2019-02-19T23:18:38.174Z,17.93
2019-02-19T23:21:07.639Z,17.60
2019-02-19T23:23:37.118Z,16.50
2019-02-19T23:26:06.559Z,17.60
2019-02-19T23:28:36.021Z,17.70
2019-02-19T23:31:05.506Z,16.00
2019-02-19T23:33:34.977Z,16.43
2019-02-19T23:36:09.019Z,15.17
2019-02-19T23:38:38.511Z,16.90
2019-02-19T23:41:07.958Z,16.67
2019-02-19T23:43:37.415Z,17.47
2019-02-19T23:46:06.910Z,16.43
2019-02-19T23:48:36.369Z,18.30
2019-02-19T23:51:05.828Z,18.27
2019-02-19T23:53:35.616Z,15.60
2019-02-19T23:56:05.076Z,17.23
2019-02-19T23:58:34.611Z,16.17
